Time;durP1;ratioP1;P1;durP2;ratioP2;P2;SDS_P1;SDS_P2;PMS_P1;PMS_P2;Temp;Humidity;BMP_temperature;BMP_pressure;BME280_temperature;BME280_humidity;BME280_pressure;Samples;Min_cycle;Max_cycle;Signal;HPM_P1;HPM_P2
2022/03/30 00:02:18;;;;;;;;;;;4.60;99.90;;;;;;5072171;28;19920;-77
2022/03/30 00:04:43;;;;;;;;;;;4.60;99.90;;;;;;5073469;28;19928;-76
2022/03/30 00:07:09;;;;;;;;;;;4.70;99.90;;;;;;5059542;28;19935;-77
2022/03/30 00:09:34;;;;;;;;;;;4.80;99.90;;;;;;5072968;28;20019;-77
2022/03/30 00:12:00;;;;;;;;;;;4.80;99.90;;;;;;5075742;28;20050;-76
2022/03/30 00:14:25;;;;;;;;;;;4.90;99.90;;;;;;5075553;28;19930;-77
2022/03/30 00:16:54;;;;;;;;;;;4.90;99.90;;;;;;5076108;28;19920;-77
2022/03/30 00:19:19;;;;;;;;;;;4.90;99.90;;;;;;5067654;28;19967;-77
2022/03/30 00:21:45;;;;;;;;;;;4.90;99.90;;;;;;5070834;28;19921;-77
2022/03/30 00:24:11;;;;;;;;;;;4.90;99.90;;;;;;5072737;28;20267;-77
2022/03/30 00:26:37;;;;;;;;;;;4.80;99.90;;;;;;5071370;28;19932;-77
2022/03/30 00:29:04;;;;;;;;;;;4.80;99.90;;;;;;5066270;28;19920;-77
2022/03/30 00:31:30;;;;;;;;;;;4.80;99.90;;;;;;5068374;28;20013;-77
2022/03/30 00:33:56;;;;;;;;;;;4.80;99.90;;;;;;5072184;28;19924;-77
2022/03/30 00:36:21;;;;;;;;;;;4.80;99.90;;;;;;5070600;28;19920;-76
2022/03/30 00:38:47;;;;;;;;;;;4.80;99.90;;;;;;5068724;28;19924;-77
2022/03/30 00:41:12;;;;;;;;;;;4.80;99.90;;;;;;5048922;28;19956;-77
2022/03/30 00:43:37;;;;;;;;;;;4.70;99.90;;;;;;5055231;28;20015;-76
2022/03/30 00:46:03;;;;;;;;;;;4.70;99.90;;;;;;5071858;28;19921;-77
2022/03/30 00:48:29;;;;;;;;;;;4.60;99.90;;;;;;5070146;28;19921;-77
2022/03/30 00:50:54;;;;;;;;;;;4.60;99.90;;;;;;5071383;28;19920;-77
2022/03/30 00:53:20;;;;;;;;;;;4.60;99.90;;;;;;5071947;28;19927;-77
2022/03/30 00:55:45;;;;;;;;;;;4.60;99.90;;;;;;5071224;28;19943;-77
2022/03/30 00:58:11;;;;;;;;;;;4.50;99.90;;;;;;5070157;28;19931;-77
2022/03/30 01:00:37;;;;;;;;;;;4.50;99.90;;;;;;5063190;28;20432;-77
2022/03/30 01:03:03;;;;;;;;;;;4.50;99.90;;;;;;5071413;28;19920;-77
2022/03/30 01:05:28;;;;;;;;;;;4.50;99.90;;;;;;5071100;28;19920;-77
2022/03/30 01:07:57;;;;;;;;;;;4.40;99.90;;;;;;5068579;28;19942;-77
2022/03/30 01:10:22;;;;;;;;;;;4.40;99.90;;;;;;5071000;28;20046;-77
2022/03/30 01:12:52;;;;;;;;;;;4.30;99.90;;;;;;5071617;28;19991;-77
2022/03/30 01:15:17;;;;;;;;;;;4.30;99.90;;;;;;5071219;28;20013;-77
2022/03/30 01:17:43;;;;;;;;;;;4.20;99.90;;;;;;5069766;28;19979;-77
2022/03/30 01:20:10;;;;;;;;;;;4.20;99.90;;;;;;5070888;28;19924;-77
2022/03/30 01:22:36;;;;;;;;;;;4.20;99.90;;;;;;5054155;28;19926;-77
2022/03/30 01:25:01;;;;;;;;;;;4.20;99.90;;;;;;5071351;28;20003;-77
2022/03/30 01:27:27;;;;;;;;;;;4.10;99.90;;;;;;5069755;28;20040;-77
2022/03/30 01:32:37;;;;;;;;;;;4.00;99.90;;;;;;5070802;28;19924;-77
2022/03/30 01:35:04;;;;;;;;;;;3.90;99.90;;;;;;5053821;28;19920;-77
2022/03/30 01:37:30;;;;;;;;;;;3.90;99.90;;;;;;5052858;28;19928;-77
2022/03/30 01:39:57;;;;;;;;;;;3.80;99.90;;;;;;5045591;28;20375;-77
2022/03/30 01:42:23;;;;;;;;;;;3.70;99.90;;;;;;5071123;28;19956;-77
2022/03/30 01:44:49;;;;;;;;;;;3.70;99.90;;;;;;5070951;28;19920;-77
2022/03/30 01:47:15;;;;;;;;;;;3.70;99.90;;;;;;5054144;28;19921;-77
2022/03/30 01:49:41;;;;;;;;;;;3.70;99.90;;;;;;5066264;28;19920;-78
2022/03/30 01:52:07;;;;;;;;;;;3.70;99.90;;;;;;5070922;28;19928;-77
2022/03/30 01:54:37;;;;;;;;;;;3.60;99.90;;;;;;5071080;28;19920;-77
2022/03/30 01:57:02;;;;;;;;;;;3.70;99.90;;;;;;5069955;28;20023;-76
2022/03/30 01:59:28;;;;;;;;;;;3.70;99.90;;;;;;5045223;28;19975;-77
2022/03/30 02:01:53;;;;;;;;;;;3.80;99.90;;;;;;5071207;28;19921;-77
2022/03/30 02:04:19;;;;;;;;;;;3.90;99.90;;;;;;5070613;28;20390;-77
2022/03/30 02:06:45;;;;;;;;;;;4.00;99.90;;;;;;5070273;28;19920;-77
2022/03/30 02:09:12;;;;;;;;;;;4.00;99.90;;;;;;5068245;28;20282;-77
2022/03/30 02:11:38;;;;;;;;;;;4.10;99.90;;;;;;5070540;28;20332;-77
2022/03/30 02:14:03;;;;;;;;;;;4.10;99.90;;;;;;5070832;28;20345;-77
2022/03/30 02:16:29;;;;;;;;;;;4.20;99.90;;;;;;5053351;28;19920;-77
2022/03/30 02:18:54;;;;;;;;;;;4.20;99.90;;;;;;5061208;28;20021;-77
2022/03/30 02:21:20;;;;;;;;;;;4.20;99.90;;;;;;5070686;28;19962;-78
2022/03/30 02:23:46;;;;;;;;;;;4.30;99.90;;;;;;5070423;28;20381;-77
2022/03/30 02:26:13;;;;;;;;;;;4.30;99.90;;;;;;5070101;28;19920;-76
2022/03/30 02:28:38;;;;;;;;;;;4.40;99.90;;;;;;5068994;28;19920;-77
2022/03/30 02:31:04;;;;;;;;;;;4.40;99.90;;;;;;5069120;28;19939;-77
2022/03/30 02:33:29;;;;;;;;;;;4.40;99.90;;;;;;5070186;28;19960;-77
2022/03/30 02:35:56;;;;;;;;;;;4.40;99.90;;;;;;5053116;28;20310;-77
2022/03/30 02:38:21;;;;;;;;;;;4.40;99.90;;;;;;5061681;28;20410;-77
2022/03/30 02:40:47;;;;;;;;;;;4.50;99.90;;;;;;5068138;28;19921;-77
2022/03/30 02:43:16;;;;;;;;;;;4.50;99.90;;;;;;5053563;28;19973;-76
2022/03/30 02:45:41;;;;;;;;;;;4.60;99.90;;;;;;5070065;28;19927;-77
2022/03/30 02:48:19;;;;;;;;;;;4.70;99.90;;;;;;5058555;28;20007;-77
2022/03/30 02:50:51;;;;;;;;;;;4.80;99.90;;;;;;5089965;28;19924;-77
2022/03/30 02:53:18;;;;;;;;;;;4.80;99.90;;;;;;5074103;28;19920;-77
2022/03/30 02:55:44;;;;;;;;;;;4.90;99.90;;;;;;5073872;28;19920;-77
2022/03/30 02:58:10;;;;;;;;;;;4.90;99.90;;;;;;5067497;28;20267;-77
2022/03/30 03:00:36;;;;;;;;;;;4.90;99.90;;;;;;5054469;28;20352;-77
2022/03/30 03:03:02;;;;;;;;;;;4.90;99.90;;;;;;5073669;28;19968;-78
2022/03/30 03:05:32;;;;;;;;;;;5.00;99.90;;;;;;5073929;28;19928;-77
2022/03/30 03:08:06;;;;;;;;;;;5.00;99.90;;;;;;5067976;28;19921;-77
2022/03/30 03:10:32;;;;;;;;;;;5.00;99.90;;;;;;5069154;28;20442;-77
2022/03/30 03:12:57;;;;;;;;;;;5.00;99.90;;;;;;5073057;28;19927;-76
2022/03/30 03:15:23;;;;;;;;;;;5.10;99.90;;;;;;5072782;28;19920;-76
2022/03/30 03:17:49;;;;;;;;;;;5.10;99.90;;;;;;5068408;28;20018;-76
2022/03/30 03:20:15;;;;;;;;;;;5.10;99.90;;;;;;5056444;28;19927;-76
2022/03/30 03:22:41;;;;;;;;;;;5.20;99.90;;;;;;5073123;28;20393;-76
2022/03/30 03:25:07;;;;;;;;;;;5.20;99.90;;;;;;5072809;28;20026;-76
2022/03/30 03:27:32;;;;;;;;;;;5.20;99.90;;;;;;5063643;28;19921;-76
2022/03/30 03:29:58;;;;;;;;;;;5.20;99.90;;;;;;5072508;28;20282;-76
2022/03/30 03:32:23;;;;;;;;;;;5.10;99.90;;;;;;5072495;28;19921;-76
2022/03/30 03:34:49;;;;;;;;;;;5.00;99.90;;;;;;5072606;28;20011;-76
2022/03/30 03:37:17;;;;;;;;;;;5.00;99.90;;;;;;5064847;28;20012;-76
2022/03/30 03:39:43;;;;;;;;;;;5.00;99.90;;;;;;5067477;28;19920;-76
2022/03/30 03:42:08;;;;;;;;;;;4.90;99.90;;;;;;5063779;28;20042;-76
2022/03/30 03:44:34;;;;;;;;;;;4.90;99.90;;;;;;5071615;28;19927;-76
2022/03/30 03:46:59;;;;;;;;;;;4.90;99.90;;;;;;5072105;28;19921;-76
2022/03/30 03:49:25;;;;;;;;;;;4.90;99.90;;;;;;5072368;28;20378;-76
2022/03/30 03:51:51;;;;;;;;;;;5.00;99.90;;;;;;5072296;28;20199;-76
2022/03/30 03:54:16;;;;;;;;;;;4.90;99.90;;;;;;5072032;28;19924;-76
2022/03/30 03:56:42;;;;;;;;;;;5.00;99.90;;;;;;5071088;28;19926;-76
2022/03/30 03:59:07;;;;;;;;;;;5.00;99.90;;;;;;5071994;28;19925;-76
2022/03/30 04:01:34;;;;;;;;;;;4.90;99.90;;;;;;5071177;28;19927;-76
2022/03/30 04:03:59;;;;;;;;;;;4.90;99.90;;;;;;5071798;28;20654;-76
2022/03/30 04:06:25;;;;;;;;;;;4.90;99.90;;;;;;5071238;28;19928;-76
2022/03/30 04:08:50;;;;;;;;;;;4.90;99.90;;;;;;5072128;28;20437;-76
2022/03/30 04:11:16;;;;;;;;;;;5.00;99.90;;;;;;5071800;28;20451;-76
2022/03/30 04:13:41;;;;;;;;;;;5.00;99.90;;;;;;5071781;28;19927;-76
2022/03/30 04:16:07;;;;;;;;;;;5.00;99.90;;;;;;5065591;28;19921;-76
2022/03/30 04:18:32;;;;;;;;;;;5.00;99.90;;;;;;5051669;28;19947;-76
2022/03/30 04:20:58;;;;;;;;;;;5.00;99.90;;;;;;5071619;28;20017;-76
2022/03/30 04:23:23;;;;;;;;;;;5.00;99.90;;;;;;5071700;28;19921;-75
2022/03/30 04:25:49;;;;;;;;;;;5.00;99.90;;;;;;5068343;28;20331;-76
2022/03/30 04:28:17;;;;;;;;;;;5.00;99.90;;;;;;5065700;28;19920;-76
2022/03/30 04:30:43;;;;;;;;;;;5.00;99.90;;;;;;5055473;28;20286;-76
2022/03/30 04:33:09;;;;;;;;;;;5.00;99.90;;;;;;5071593;28;20004;-75
2022/03/30 04:35:35;;;;;;;;;;;5.10;99.90;;;;;;5070349;28;19921;-76
2022/03/30 04:38:01;;;;;;;;;;;5.10;99.90;;;;;;5051269;28;20007;-75
2022/03/30 04:40:27;;;;;;;;;;;5.20;99.90;;;;;;5051282;28;19971;-76
2022/03/30 04:42:52;;;;;;;;;;;5.20;99.90;;;;;;5058048;28;20363;-75
2022/03/30 04:45:18;;;;;;;;;;;5.20;99.90;;;;;;5070132;28;19960;-76
2022/03/30 04:47:43;;;;;;;;;;;5.30;99.90;;;;;;5068742;28;19927;-75
2022/03/30 04:50:13;;;;;;;;;;;5.30;99.90;;;;;;5067810;28;20366;-75
2022/03/30 04:52:39;;;;;;;;;;;5.30;99.90;;;;;;5070975;28;19927;-76
2022/03/30 04:55:05;;;;;;;;;;;5.30;99.90;;;;;;5070110;28;19921;-76
2022/03/30 04:57:31;;;;;;;;;;;5.30;99.90;;;;;;5070551;28;19925;-76
2022/03/30 04:59:56;;;;;;;;;;;5.40;99.90;;;;;;5054221;28;20291;-76
2022/03/30 05:02:22;;;;;;;;;;;5.40;99.90;;;;;;5071059;28;20364;-76
2022/03/30 05:04:48;;;;;;;;;;;5.40;99.90;;;;;;5069700;28;19921;-76
2022/03/30 05:07:14;;;;;;;;;;;5.40;99.90;;;;;;5070346;28;19924;-75
2022/03/30 05:09:40;;;;;;;;;;;5.40;99.90;;;;;;5052218;28;19928;-76
2022/03/30 05:12:05;;;;;;;;;;;5.40;99.90;;;;;;5057585;28;20359;-75
2022/03/30 05:14:32;;;;;;;;;;;5.40;99.90;;;;;;5065528;28;19920;-76
2022/03/30 05:16:58;;;;;;;;;;;5.40;99.90;;;;;;5069810;28;19921;-76
2022/03/30 05:19:24;;;;;;;;;;;5.50;99.90;;;;;;5070487;28;19926;-76
2022/03/30 05:21:49;;;;;;;;;;;5.50;99.90;;;;;;5070708;28;20305;-75
2022/03/30 05:24:15;;;;;;;;;;;5.50;99.90;;;;;;5070609;28;19924;-76
2022/03/30 05:26:40;;;;;;;;;;;5.50;99.90;;;;;;5070235;28;20341;-76
2022/03/30 05:29:05;;;;;;;;;;;5.50;99.90;;;;;;5070447;28;19920;-76
2022/03/30 05:31:31;;;;;;;;;;;5.60;99.90;;;;;;5070357;28;20379;-76
2022/03/30 05:33:57;;;;;;;;;;;5.50;99.90;;;;;;5070126;28;19967;-76
2022/03/30 05:36:22;;;;;;;;;;;5.50;99.90;;;;;;5070229;28;20289;-76
2022/03/30 05:38:50;;;;;;;;;;;5.50;99.90;;;;;;5070417;28;19924;-76
2022/03/30 05:41:16;;;;;;;;;;;5.50;99.90;;;;;;5070279;28;19927;-76
2022/03/30 05:43:42;;;;;;;;;;;5.50;99.90;;;;;;5053704;28;19928;-76
2022/03/30 05:46:08;;;;;;;;;;;5.40;99.90;;;;;;5070063;28;19995;-76
2022/03/30 05:48:34;;;;;;;;;;;5.40;99.90;;;;;;5070053;28;20078;-76
2022/03/30 05:50:59;;;;;;;;;;;5.40;99.90;;;;;;5070380;28;19991;-76
2022/03/30 05:53:25;;;;;;;;;;;5.40;99.90;;;;;;5053688;28;19928;-77
2022/03/30 05:55:50;;;;;;;;;;;5.30;99.90;;;;;;5070106;28;20014;-77
2022/03/30 05:58:16;;;;;;;;;;;5.30;99.90;;;;;;5070117;28;19928;-77
2022/03/30 06:00:42;;;;;;;;;;;5.20;99.90;;;;;;5071380;28;20297;-78
2022/03/30 06:03:08;;;;;;;;;;;5.20;99.90;;;;;;5071007;28;19928;-77
2022/03/30 06:05:33;;;;;;;;;;;5.10;99.90;;;;;;5070199;28;19921;-77
2022/03/30 06:07:59;;;;;;;;;;;5.10;99.90;;;;;;5070424;28;19920;-77
2022/03/30 06:10:28;;;;;;;;;;;5.10;99.90;;;;;;5070043;28;20008;-77
2022/03/30 06:12:55;;;;;;;;;;;5.10;99.90;;;;;;5070377;28;19924;-77
2022/03/30 06:15:20;;;;;;;;;;;5.10;99.90;;;;;;5070111;28;19943;-77
2022/03/30 06:17:47;;;;;;;;;;;5.10;99.90;;;;;;5069762;28;19929;-77
2022/03/30 06:20:13;;;;;;;;;;;5.10;99.90;;;;;;5070503;28;19971;-77
2022/03/30 06:22:41;;;;;;;;;;;5.10;99.90;;;;;;5069809;28;19964;-77
2022/03/30 06:25:07;;;;;;;;;;;5.10;99.90;;;;;;5071927;28;19924;-77
2022/03/30 06:27:33;;;;;;;;;;;5.10;99.90;;;;;;5073579;28;19920;-77
2022/03/30 06:29:58;;;;;;;;;;;5.20;99.90;;;;;;5073884;28;19920;-77
2022/03/30 06:32:24;;;;;;;;;;;5.20;99.90;;;;;;5073371;28;20413;-77
2022/03/30 06:34:49;;;;;;;;;;;5.20;99.90;;;;;;5074029;28;19927;-77
2022/03/30 06:37:15;;;;;;;;;;;5.30;99.90;;;;;;5073384;28;19932;-77
2022/03/30 06:39:40;;;;;;;;;;;5.30;99.90;;;;;;5074218;28;19920;-77
2022/03/30 06:42:06;;;;;;;;;;;5.40;99.90;;;;;;5073441;28;19991;-78
2022/03/30 06:44:32;;;;;;;;;;;5.40;99.90;;;;;;5073652;28;20275;-77
2022/03/30 06:46:58;;;;;;;;;;;5.50;99.90;;;;;;5056623;28;20405;-78
2022/03/30 06:49:23;;;;;;;;;;;5.50;99.90;;;;;;5073461;28;19924;-77
2022/03/30 06:51:49;;;;;;;;;;;5.60;99.90;;;;;;5073244;28;19973;-77
2022/03/30 06:54:14;;;;;;;;;;;5.70;99.90;;;;;;5073196;28;19921;-77
2022/03/30 06:56:40;;;;;;;;;;;5.80;99.90;;;;;;5073076;28;19921;-78
2022/03/30 06:59:05;;;;;;;;;;;5.90;99.90;;;;;;5073223;28;19983;-77
2022/03/30 07:01:31;;;;;;;;;;;5.90;99.90;;;;;;5073134;28;19928;-77
2022/03/30 07:03:56;;;;;;;;;;;6.00;99.90;;;;;;5073140;28;19924;-77
2022/03/30 07:06:21;;;;;;;;;;;6.10;99.90;;;;;;5056240;28;19927;-77
2022/03/30 07:11:31;;;;;;;;;;;6.20;99.90;;;;;;5073049;28;19962;-77
2022/03/30 07:13:58;;;;;;;;;;;6.10;99.90;;;;;;5073479;28;19924;-77
2022/03/30 07:16:23;;;;;;;;;;;6.10;99.90;;;;;;5073022;28;19924;-77
2022/03/30 07:18:50;;;;;;;;;;;6.20;99.90;;;;;;5072970;28;19978;-77
2022/03/30 07:21:16;;;;;;;;;;;6.20;99.90;;;;;;5072903;28;19920;-77
2022/03/30 07:23:42;;;;;;;;;;;6.30;99.90;;;;;;5074105;28;19920;-77
2022/03/30 07:26:07;;;;;;;;;;;6.30;99.90;;;;;;5072781;28;19927;-77
2022/03/30 07:28:35;;;;;;;;;;;6.30;99.90;;;;;;5072674;28;20382;-77
2022/03/30 07:31:01;;;;;;;;;;;6.30;99.90;;;;;;5072626;28;19926;-77
2022/03/30 07:33:26;;;;;;;;;;;6.30;99.90;;;;;;5073059;28;20098;-77
2022/03/30 07:35:52;;;;;;;;;;;6.30;99.90;;;;;;5071049;28;19924;-77
2022/03/30 07:38:18;;;;;;;;;;;6.30;99.90;;;;;;5072435;28;19978;-76
2022/03/30 07:40:45;;;;;;;;;;;6.30;99.90;;;;;;5072633;28;19924;-77
2022/03/30 07:43:12;;;;;;;;;;;6.40;99.90;;;;;;5072806;28;20375;-76
2022/03/30 07:45:38;;;;;;;;;;;6.40;99.90;;;;;;5072469;28;19947;-76
2022/03/30 07:48:04;;;;;;;;;;;6.60;99.90;;;;;;5072172;28;19921;-76
2022/03/30 07:50:29;;;;;;;;;;;6.60;99.90;;;;;;5072083;28;19925;-76
2022/03/30 07:52:55;;;;;;;;;;;6.60;99.90;;;;;;5072290;28;19920;-76
2022/03/30 07:55:20;;;;;;;;;;;6.70;99.90;;;;;;5072578;28;19928;-76
2022/03/30 07:57:46;;;;;;;;;;;6.70;99.90;;;;;;5072237;28;19962;-76
2022/03/30 08:00:15;;;;;;;;;;;6.80;99.90;;;;;;5072544;28;20371;-76
2022/03/30 08:02:42;;;;;;;;;;;6.80;99.90;;;;;;5072281;28;19936;-76
2022/03/30 08:05:10;;;;;;;;;;;6.90;99.90;;;;;;5072102;28;19921;-76
2022/03/30 08:07:35;;;;;;;;;;;6.90;99.90;;;;;;5071674;28;20409;-76
2022/03/30 08:10:01;;;;;;;;;;;7.00;99.90;;;;;;5071675;28;19920;-76
2022/03/30 08:12:27;;;;;;;;;;;7.10;99.90;;;;;;5071750;28;19932;-76
2022/03/30 08:14:54;;;;;;;;;;;7.20;99.90;;;;;;5071792;28;20022;-76
2022/03/30 08:17:20;;;;;;;;;;;7.30;99.90;;;;;;5071148;28;20358;-76
2022/03/30 08:19:45;;;;;;;;;;;7.40;99.90;;;;;;5071662;28;19999;-76
2022/03/30 08:22:26;;;;;;;;;;;7.50;99.90;;;;;;5071685;28;20004;-76
2022/03/30 08:24:55;;;;;;;;;;;7.60;99.90;;;;;;5071595;28;19920;-76
2022/03/30 08:27:22;;;;;;;;;;;7.80;99.90;;;;;;5071357;28;19925;-76
2022/03/30 08:29:48;;;;;;;;;;;7.80;99.90;;;;;;5071730;28;20328;-76
2022/03/30 08:32:15;;;;;;;;;;;7.90;99.90;;;;;;5070987;28;19928;-76
2022/03/30 08:34:41;;;;;;;;;;;7.90;99.90;;;;;;5071941;28;20018;-77
2022/03/30 08:37:06;;;;;;;;;;;7.90;99.90;;;;;;5070974;28;20012;-77
2022/03/30 08:39:33;;;;;;;;;;;8.00;99.90;;;;;;5071679;28;19986;-77
2022/03/30 08:41:59;;;;;;;;;;;7.90;99.90;;;;;;5071165;28;19920;-77
2022/03/30 08:44:25;;;;;;;;;;;7.90;99.90;;;;;;5071125;28;19920;-77
2022/03/30 08:46:51;;;;;;;;;;;7.80;99.90;;;;;;5070442;28;19955;-77
2022/03/30 08:49:16;;;;;;;;;;;7.70;99.90;;;;;;5071225;28;20017;-78
2022/03/30 08:51:42;;;;;;;;;;;7.70;99.90;;;;;;5054599;28;19920;-78
2022/03/30 08:54:12;;;;;;;;;;;7.70;99.90;;;;;;5071130;28;19920;-78
2022/03/30 08:56:39;;;;;;;;;;;7.80;99.90;;;;;;5070861;28;19973;-78
2022/03/30 08:59:06;;;;;;;;;;;7.80;99.90;;;;;;5070869;28;19925;-78
2022/03/30 09:01:36;;;;;;;;;;;7.70;99.90;;;;;;5071003;28;20294;-78
2022/03/30 09:04:03;;;;;;;;;;;7.60;99.90;;;;;;5072126;28;19920;-78
2022/03/30 09:06:30;;;;;;;;;;;7.50;99.90;;;;;;5070638;28;20437;-78
2022/03/30 09:08:58;;;;;;;;;;;7.50;99.90;;;;;;5070768;28;20374;-78
2022/03/30 09:11:29;;;;;;;;;;;7.60;99.90;;;;;;5070963;28;20325;-78
2022/03/30 09:14:04;;;;;;;;;;;7.80;99.90;;;;;;5070775;28;19920;-78
2022/03/30 09:16:46;;;;;;;;;;;7.80;99.90;;;;;;5070476;28;19921;-76
2022/03/30 09:19:13;;;;;;;;;;;7.80;99.90;;;;;;5070676;28;20331;-76
2022/03/30 09:21:46;;;;;;;;;;;7.80;99.90;;;;;;5070920;28;19920;-77
2022/03/30 09:24:13;;;;;;;;;;;7.80;99.90;;;;;;5070488;28;19924;-77
2022/03/30 09:26:40;;;;;;;;;;;7.90;99.90;;;;;;5070511;28;19920;-77
2022/03/30 09:29:05;;;;;;;;;;;8.00;99.90;;;;;;5070778;28;19974;-77
2022/03/30 09:31:31;;;;;;;;;;;8.00;99.90;;;;;;5070168;28;19972;-76
2022/03/30 09:34:00;;;;;;;;;;;8.00;99.90;;;;;;5070528;28;19970;-77
2022/03/30 09:36:30;;;;;;;;;;;7.90;99.90;;;;;;5070259;28;19928;-76
2022/03/30 09:38:56;;;;;;;;;;;7.90;99.90;;;;;;5070308;28;19978;-76
2022/03/30 09:41:21;;;;;;;;;;;7.70;99.90;;;;;;5070425;28;19920;-76
2022/03/30 09:43:47;;;;;;;;;;;7.40;99.90;;;;;;5070482;28;20301;-76
2022/03/30 09:46:14;;;;;;;;;;;7.30;99.90;;;;;;5070407;28;19928;-77
2022/03/30 09:48:49;;;;;;;;;;;7.20;99.90;;;;;;5070764;28;20409;-76
2022/03/30 09:51:15;;;;;;;;;;;7.20;99.90;;;;;;5070537;28;19928;-76
2022/03/30 09:53:42;;;;;;;;;;;7.20;99.90;;;;;;5070146;28;19963;-77
2022/03/30 09:56:08;;;;;;;;;;;7.30;99.90;;;;;;5070475;28;19947;-77
2022/03/30 09:58:37;;;;;;;;;;;7.40;99.90;;;;;;5070215;28;19932;-76
2022/03/30 10:01:22;;;;;;;;;;;7.70;99.90;;;;;;5073984;28;19959;-76
2022/03/30 10:03:51;;;;;;;;;;;7.90;99.90;;;;;;5074071;28;20065;-77
2022/03/30 10:06:26;;;;;;;;;;;8.30;99.90;;;;;;5057919;28;19929;-77
2022/03/30 10:08:52;;;;;;;;;;;8.50;99.90;;;;;;5074518;28;20009;-76
2022/03/30 10:11:17;;;;;;;;;;;8.70;99.90;;;;;;5074288;28;19967;-77
2022/03/30 10:13:53;;;;;;;;;;;8.90;99.90;;;;;;5074275;28;20012;-77
2022/03/30 10:16:20;;;;;;;;;;;9.00;99.90;;;;;;5073851;28;19928;-77
2022/03/30 10:18:47;;;;;;;;;;;9.10;99.90;;;;;;5074227;28;19929;-77
2022/03/30 10:21:22;;;;;;;;;;;9.00;99.90;;;;;;5073625;28;20448;-77
2022/03/30 10:23:47;;;;;;;;;;;9.10;99.90;;;;;;5074113;28;19928;-76
2022/03/30 10:26:30;;;;;;;;;;;9.20;99.90;;;;;;5073745;28;19928;-76
2022/03/30 10:29:01;;;;;;;;;;;9.20;99.90;;;;;;5073927;28;19921;-77
2022/03/30 10:31:36;;;;;;;;;;;9.10;99.90;;;;;;5092922;23;19924;-77
2022/03/30 10:34:26;;;;;;;;;;;9.00;99.90;;;;;;5056892;28;19930;-77
2022/03/30 10:37:15;;;;;;;;;;;9.00;99.90;;;;;;5051821;28;19920;-77
2022/03/30 10:40:05;;;;;;;;;;;;;;;;;;;;;
2022/03/30 10:46:02;;;;;;;;;;;9.30;99.90;;;;;;5025799;28;19979;-77
2022/03/30 10:48:59;;;;;;;;;;;9.30;99.90;;;;;;5036613;28;19925;-78
2022/03/30 10:51:31;;;;;;;;;;;9.40;99.90;;;;;;5036784;28;19921;-78
2022/03/30 10:54:02;;;;;;;;;;;9.50;99.90;;;;;;5036995;28;19921;-78
2022/03/30 10:57:12;;;;;;;;;;;9.50;99.90;;;;;;5036468;28;19925;-78
2022/03/30 11:00:02;;;;;;;;;;;9.50;99.90;;;;;;5033793;28;20009;-78
2022/03/30 11:06:22;;;;;;;;;;;9.30;99.90;;;;;;5035437;28;19920;-78
2022/03/30 11:09:07;;;;;;;;;;;9.30;99.90;;;;;;5020238;28;19939;-78
2022/03/30 11:11:43;;;;;;;;;;;9.20;99.90;;;;;;5037600;28;19928;-78
2022/03/30 11:14:33;;;;;;;;;;;9.20;99.90;;;;;;5036626;28;20374;-78
2022/03/30 11:17:01;;;;;;;;;;;9.40;99.90;;;;;;5019547;28;19936;-78
2022/03/30 11:19:54;;;;;;;;;;;9.20;99.90;;;;;;5036188;28;19975;-78
2022/03/30 11:22:44;;;;;;;;;;;9.20;99.90;;;;;;5024488;28;20419;-78
2022/03/30 11:28:45;;;;;;;;;;;9.10;99.90;;;;;;5014302;28;19928;-78
2022/03/30 11:31:29;;;;;;;;;;;9.40;99.90;;;;;;5012069;28;20325;-78
2022/03/30 11:37:43;;;;;;;;;;;9.50;99.90;;;;;;5035357;28;19976;-78
2022/03/30 11:40:22;;;;;;;;;;;9.30;99.90;;;;;;5015861;28;19924;-78
2022/03/30 11:43:06;;;;;;;;;;;9.30;99.90;;;;;;5039603;28;19925;-78
2022/03/30 11:45:59;;;;;;;;;;;9.30;99.90;;;;;;5055758;28;19920;-78
2022/03/30 11:48:25;;;;;;;;;;;9.30;99.90;;;;;;5050502;28;20461;-78
2022/03/30 11:54:26;;;;;;;;;;;9.50;99.90;;;;;;5059030;28;19985;-78
2022/03/30 11:57:30;;;;;;;;;;;9.50;99.90;;;;;;5055441;28;19920;-78
2022/03/30 12:00:37;;;;;;;;;;;9.60;99.90;;;;;;5051637;28;19931;-78
2022/03/30 12:10:37;;;;;;;;;;;10.00;99.90;;;;;;4960289;28;19922;-78
2022/03/30 12:13:40;;;;;;;;;;;10.20;99.90;;;;;;4976354;28;19929;-78
2022/03/30 12:16:21;;;;;;;;;;;10.40;99.90;;;;;;5011040;28;20432;-79
2022/03/30 12:22:26;;;;;;;;;;;11.00;95.70;;;;;;5067579;23;19931;-79
2022/03/30 12:25:14;;;;;;;;;;;11.00;93.30;;;;;;5092443;28;20339;-79
2022/03/30 12:27:47;;;;;;;;;;;10.90;89.40;;;;;;5092875;28;19963;-79
2022/03/30 12:30:25;;;;;;;;;;;10.70;90.20;;;;;;5091842;28;20385;-79
2022/03/30 12:40:06;;;;;;;;;;;10.20;87.70;;;;;;5001308;28;20008;-77
2022/03/30 12:52:33;;;;;;;;;;;;;;;;;;;;;
2022/03/30 12:55:26;;;;;;;;;;;9.20;99.90;;;;;;5012075;28;19921;-78
2022/03/30 13:01:44;;;;;;;;;;;9.10;99.90;;;;;;5081537;28;19931;-77
2022/03/30 13:04:54;;;;;;;;;;;9.10;99.90;;;;;;5091720;28;20344;-77
2022/03/30 13:07:37;;;;;;;;;;;;;;;;;;;;;
2022/03/30 13:10:12;;;;;;;;;;;9.30;99.90;;;;;;5090129;28;19920;-77
2022/03/30 13:13:13;;;;;;;;;;;9.50;99.90;;;;;;5073449;28;19920;-77
2022/03/30 13:15:45;;;;;;;;;;;9.60;99.10;;;;;;5068627;28;20290;-77
2022/03/30 13:18:21;;;;;;;;;;;9.90;98.70;;;;;;5090256;28;20010;-77
2022/03/30 13:24:03;;;;;;;;;;;10.20;95.70;;;;;;5090694;28;19925;-77
2022/03/30 13:26:33;;;;;;;;;;;10.50;98.60;;;;;;5072373;28;19920;-77
2022/03/30 13:29:46;;;;;;;;;;;;;;;;;;;;;
2022/03/30 13:32:53;;;;;;;;;;;10.80;95.50;;;;;;5090664;28;19920;-78
2022/03/30 13:38:55;;;;;;;;;;;10.60;98.70;;;;;;5089250;28;19992;-77
2022/03/30 13:42:05;;;;;;;;;;;10.30;99.90;;;;;;5048636;28;20024;-77
2022/03/30 13:44:30;;;;;;;;;;;10.10;99.90;;;;;;5083614;28;20007;-77
2022/03/30 13:50:38;;;;;;;;;;;;;;;;;;;;;
2022/03/30 13:53:22;;;;;;;;;;;10.40;99.90;;;;;;5090749;28;20023;-77
2022/03/30 13:56:03;;;;;;;;;;;;;;;;;;;;;
2022/03/30 13:58:50;;;;;;;;;;;10.90;98.70;;;;;;5090680;28;20378;-79
2022/03/30 14:01:34;;;;;;;;;;;10.70;98.00;;;;;;5086060;28;20390;-78
2022/03/30 14:04:07;;;;;;;;;;;10.50;94.70;;;;;;5086127;28;19993;-79
2022/03/30 14:10:05;;;;;;;;;;;9.90;93.30;;;;;;5052517;28;20291;-78
2022/03/30 14:13:09;;;;;;;;;;;9.80;99.90;;;;;;5085557;28;20011;-78
2022/03/30 14:15:55;;;;;;;;;;;9.70;99.90;;;;;;5006012;28;20334;-79
2022/03/30 14:18:56;;;;;;;;;;;9.50;99.90;;;;;;5028048;28;19933;-78
2022/03/30 14:21:37;;;;;;;;;;;9.30;99.90;;;;;;5072647;28;19920;-78
2022/03/30 14:24:15;;;;;;;;;;;9.20;99.90;;;;;;5096786;28;19920;-78
2022/03/30 14:26:59;;;;;;;;;;;9.20;99.90;;;;;;5082675;28;19919;-77
2022/03/30 14:29:29;;;;;;;;;;;9.20;99.90;;;;;;5088892;28;19920;-78
2022/03/30 14:35:46;;;;;;;;;;;9.60;99.90;;;;;;5020736;28;19921;-78
2022/03/30 14:38:12;;;;;;;;;;;9.80;99.90;;;;;;4999994;28;19965;-78
2022/03/30 14:44:42;;;;;;;;;;;9.70;99.90;;;;;;5055730;28;19995;-78
2022/03/30 14:47:18;;;;;;;;;;;9.60;99.90;;;;;;5083073;28;19995;-78
2022/03/30 14:50:28;;;;;;;;;;;9.70;99.90;;;;;;5075370;28;19927;-78
2022/03/30 14:53:02;;;;;;;;;;;9.70;99.90;;;;;;5047271;28;20041;-78
2022/03/30 14:55:43;;;;;;;;;;;9.50;99.90;;;;;;5092833;28;19924;-78
2022/03/30 14:58:32;;;;;;;;;;;9.50;99.90;;;;;;5088437;28;19938;-78
2022/03/30 15:01:27;;;;;;;;;;;9.50;99.90;;;;;;5093599;28;19977;-78
2022/03/30 15:03:52;;;;;;;;;;;9.40;99.90;;;;;;5090277;28;19932;-78
2022/03/30 15:06:20;;;;;;;;;;;9.30;99.90;;;;;;5085672;28;20267;-78
2022/03/30 15:08:49;;;;;;;;;;;9.20;99.90;;;;;;5092092;28;19929;-78
2022/03/30 15:11:15;;;;;;;;;;;9.20;99.90;;;;;;5093216;28;20404;-78
2022/03/30 15:14:13;;;;;;;;;;;9.20;99.90;;;;;;5092551;28;19940;-78
2022/03/30 15:16:39;;;;;;;;;;;9.20;99.90;;;;;;5085608;28;19920;-78
2022/03/30 15:19:18;;;;;;;;;;;9.10;99.90;;;;;;5084824;28;19931;-78
2022/03/30 15:21:59;;;;;;;;;;;9.10;99.90;;;;;;5087619;28;20393;-78
2022/03/30 15:29:01;;;;;;;;;;;9.00;99.90;;;;;;5082762;28;20275;-78
2022/03/30 15:35:33;;;;;;;;;;;9.10;99.90;;;;;;5087964;28;20420;-78
2022/03/30 15:41:27;;;;;;;;;;;8.80;99.90;;;;;;5042339;22;19978;-78
2022/03/30 15:51:26;;;;;;;;;;;8.80;99.90;;;;;;4908233;29;19966;-77
2022/03/30 15:53:58;;;;;;;;;;;8.80;99.90;;;;;;4928599;22;20321;-75
2022/03/30 15:56:24;;;;;;;;;;;8.70;99.90;;;;;;5028346;28;19920;-78
2022/03/30 15:58:50;;;;;;;;;;;8.70;99.90;;;;;;5043309;28;19929;-77
2022/03/30 16:01:16;;;;;;;;;;;8.60;99.90;;;;;;5055476;28;19924;-78
2022/03/30 16:03:42;;;;;;;;;;;8.60;99.90;;;;;;5037213;28;19921;-77
2022/03/30 16:06:07;;;;;;;;;;;8.50;99.90;;;;;;5019123;28;19929;-77
2022/03/30 16:14:01;;;;;;;;;;;8.60;99.90;;;;;;5040634;28;19920;-76
2022/03/30 16:16:27;;;;;;;;;;;8.60;99.90;;;;;;5038999;28;19920;-76
2022/03/30 16:18:53;;;;;;;;;;;8.60;99.90;;;;;;5040629;28;19979;-76
2022/03/30 16:21:19;;;;;;;;;;;8.70;99.90;;;;;;5038287;28;19920;-76
2022/03/30 16:23:45;;;;;;;;;;;8.70;99.90;;;;;;5037079;28;19920;-76
2022/03/30 16:26:11;;;;;;;;;;;8.70;99.90;;;;;;5036268;28;19921;-76
2022/03/30 16:28:37;;;;;;;;;;;8.60;99.90;;;;;;5024968;28;20417;-76
2022/03/30 16:31:02;;;;;;;;;;;8.40;99.90;;;;;;5044200;28;19920;-76
2022/03/30 16:33:28;;;;;;;;;;;8.20;99.90;;;;;;5044715;28;20016;-76
2022/03/30 16:35:54;;;;;;;;;;;8.10;99.90;;;;;;5032347;28;19920;-76